sensor_id;sensor_type;location;lat;lon;timestamp;P1;durP1;ratioP1;P2;durP2;ratioP2
5688;SDS011;2869;50.432;8.680;2023-04-05T00:01:57;10.70;;;5.80;;
5688;SDS011;2869;50.432;8.680;2023-04-05T00:04:24;8.10;;;4.77;;
5688;SDS011;2869;50.432;8.680;2023-04-05T00:06:52;7.27;;;5.20;;
5688;SDS011;2869;50.432;8.680;2023-04-05T00:09:21;9.03;;;5.50;;
5688;SDS011;2869;50.432;8.680;2023-04-05T00:11:48;8.87;;;6.00;;
5688;SDS011;2869;50.432;8.680;2023-04-05T00:14:14;6.20;;;5.23;;
5688;SDS011;2869;50.432;8.680;2023-04-05T00:16:42;8.37;;;5.27;;
5688;SDS011;2869;50.432;8.680;2023-04-05T00:19:09;9.90;;;5.70;;
5688;SDS011;2869;50.432;8.680;2023-04-05T00:21:37;8.40;;;5.30;;
5688;SDS011;2869;50.432;8.680;2023-04-05T00:24:04;6.57;;;5.37;;
5688;SDS011;2869;50.432;8.680;2023-04-05T00:26:31;9.03;;;5.10;;
5688;SDS011;2869;50.432;8.680;2023-04-05T00:28:58;5.83;;;5.03;;
5688;SDS011;2869;50.432;8.680;2023-04-05T00:31:25;8.67;;;5.07;;
5688;SDS011;2869;50.432;8.680;2023-04-05T00:33:55;12.70;;;5.80;;
5688;SDS011;2869;50.432;8.680;2023-04-05T00:36:21;7.60;;;5.00;;
5688;SDS011;2869;50.432;8.680;2023-04-05T00:38:48;12.13;;;5.40;;
5688;SDS011;2869;50.432;8.680;2023-04-05T00:41:15;14.47;;;5.47;;
5688;SDS011;2869;50.432;8.680;2023-04-05T00:43:41;9.33;;;5.90;;
5688;SDS011;2869;50.432;8.680;2023-04-05T00:46:08;7.57;;;4.90;;
5688;SDS011;2869;50.432;8.680;2023-04-05T00:48:35;6.17;;;5.20;;
5688;SDS011;2869;50.432;8.680;2023-04-05T00:51:05;8.97;;;5.70;;
5688;SDS011;2869;50.432;8.680;2023-04-05T00:53:35;10.03;;;5.80;;
5688;SDS011;2869;50.432;8.680;2023-04-05T00:56:02;11.97;;;6.43;;
5688;SDS011;2869;50.432;8.680;2023-04-05T00:58:29;7.47;;;5.60;;
5688;SDS011;2869;50.432;8.680;2023-04-05T01:00:59;5.50;;;4.87;;
5688;SDS011;2869;50.432;8.680;2023-04-05T01:03:30;8.03;;;5.67;;
5688;SDS011;2869;50.432;8.680;2023-04-05T01:06:01;10.67;;;5.60;;
5688;SDS011;2869;50.432;8.680;2023-04-05T01:08:36;7.37;;;5.27;;
5688;SDS011;2869;50.432;8.680;2023-04-05T01:11:10;8.57;;;6.30;;
5688;SDS011;2869;50.432;8.680;2023-04-05T01:13:38;9.73;;;5.20;;
5688;SDS011;2869;50.432;8.680;2023-04-05T01:16:05;7.40;;;5.73;;
5688;SDS011;2869;50.432;8.680;2023-04-05T01:18:31;8.10;;;5.07;;
5688;SDS011;2869;50.432;8.680;2023-04-05T01:21:02;6.73;;;5.47;;
5688;SDS011;2869;50.432;8.680;2023-04-05T01:23:47;6.30;;;5.20;;
5688;SDS011;2869;50.432;8.680;2023-04-05T01:29:21;6.80;;;4.97;;
5688;SDS011;2869;50.432;8.680;2023-04-05T01:32:05;14.77;;;4.80;;
5688;SDS011;2869;50.432;8.680;2023-04-05T01:34:39;8.90;;;4.50;;
5688;SDS011;2869;50.432;8.680;2023-04-05T01:37:13;12.23;;;5.40;;
5688;SDS011;2869;50.432;8.680;2023-04-05T01:39:43;9.27;;;5.43;;
5688;SDS011;2869;50.432;8.680;2023-04-05T01:42:11;9.80;;;5.37;;
5688;SDS011;2869;50.432;8.680;2023-04-05T01:44:39;7.90;;;5.17;;
5688;SDS011;2869;50.432;8.680;2023-04-05T01:47:06;7.33;;;5.60;;
5688;SDS011;2869;50.432;8.680;2023-04-05T01:49:32;8.33;;;5.70;;
5688;SDS011;2869;50.432;8.680;2023-04-05T01:51:59;8.17;;;5.27;;
5688;SDS011;2869;50.432;8.680;2023-04-05T01:54:26;10.70;;;5.87;;
5688;SDS011;2869;50.432;8.680;2023-04-05T01:56:52;12.47;;;5.23;;
5688;SDS011;2869;50.432;8.680;2023-04-05T01:59:20;11.07;;;5.70;;
5688;SDS011;2869;50.432;8.680;2023-04-05T02:01:48;11.23;;;6.40;;
5688;SDS011;2869;50.432;8.680;2023-04-05T02:04:15;9.30;;;5.30;;
5688;SDS011;2869;50.432;8.680;2023-04-05T02:06:42;7.87;;;5.57;;
5688;SDS011;2869;50.432;8.680;2023-04-05T02:09:09;8.27;;;5.33;;
5688;SDS011;2869;50.432;8.680;2023-04-05T02:11:36;8.17;;;5.37;;
5688;SDS011;2869;50.432;8.680;2023-04-05T02:14:03;6.70;;;5.37;;
5688;SDS011;2869;50.432;8.680;2023-04-05T02:16:29;8.43;;;5.73;;
5688;SDS011;2869;50.432;8.680;2023-04-05T02:18:58;7.27;;;5.10;;
5688;SDS011;2869;50.432;8.680;2023-04-05T02:21:25;6.90;;;5.20;;
5688;SDS011;2869;50.432;8.680;2023-04-05T02:23:52;7.60;;;5.50;;
5688;SDS011;2869;50.432;8.680;2023-04-05T02:26:19;9.00;;;5.30;;
5688;SDS011;2869;50.432;8.680;2023-04-05T02:28:46;7.47;;;5.40;;
5688;SDS011;2869;50.432;8.680;2023-04-05T02:31:12;8.70;;;5.80;;
5688;SDS011;2869;50.432;8.680;2023-04-05T02:33:39;9.40;;;5.00;;
5688;SDS011;2869;50.432;8.680;2023-04-05T02:36:09;6.90;;;5.40;;
5688;SDS011;2869;50.432;8.680;2023-04-05T02:38:36;6.93;;;4.63;;
5688;SDS011;2869;50.432;8.680;2023-04-05T02:41:06;6.30;;;5.07;;
5688;SDS011;2869;50.432;8.680;2023-04-05T02:43:34;7.13;;;5.20;;
5688;SDS011;2869;50.432;8.680;2023-04-05T02:46:00;5.53;;;5.03;;
5688;SDS011;2869;50.432;8.680;2023-04-05T02:48:27;9.10;;;6.63;;
5688;SDS011;2869;50.432;8.680;2023-04-05T02:50:54;10.63;;;5.97;;
5688;SDS011;2869;50.432;8.680;2023-04-05T02:53:22;7.43;;;5.70;;
5688;SDS011;2869;50.432;8.680;2023-04-05T02:55:52;9.80;;;5.90;;
5688;SDS011;2869;50.432;8.680;2023-04-05T02:58:20;8.03;;;5.83;;
5688;SDS011;2869;50.432;8.680;2023-04-05T03:00:47;6.20;;;5.40;;
5688;SDS011;2869;50.432;8.680;2023-04-05T03:03:15;9.13;;;5.83;;
5688;SDS011;2869;50.432;8.680;2023-04-05T03:05:42;6.83;;;5.73;;
5688;SDS011;2869;50.432;8.680;2023-04-05T03:08:09;7.07;;;5.57;;
5688;SDS011;2869;50.432;8.680;2023-04-05T03:10:43;8.57;;;5.50;;
5688;SDS011;2869;50.432;8.680;2023-04-05T03:13:10;7.37;;;5.50;;
5688;SDS011;2869;50.432;8.680;2023-04-05T03:15:37;7.07;;;5.70;;
5688;SDS011;2869;50.432;8.680;2023-04-05T03:18:04;6.33;;;5.57;;
5688;SDS011;2869;50.432;8.680;2023-04-05T03:20:32;7.00;;;6.00;;
5688;SDS011;2869;50.432;8.680;2023-04-05T03:23:00;7.50;;;6.00;;
5688;SDS011;2869;50.432;8.680;2023-04-05T03:25:27;6.80;;;5.40;;
5688;SDS011;2869;50.432;8.680;2023-04-05T03:27:55;5.50;;;5.00;;
5688;SDS011;2869;50.432;8.680;2023-04-05T03:30:22;6.53;;;5.83;;
5688;SDS011;2869;50.432;8.680;2023-04-05T03:32:48;6.33;;;5.60;;
5688;SDS011;2869;50.432;8.680;2023-04-05T03:35:15;10.43;;;6.23;;
5688;SDS011;2869;50.432;8.680;2023-04-05T03:37:43;8.00;;;6.00;;
5688;SDS011;2869;50.432;8.680;2023-04-05T03:40:10;7.20;;;5.57;;
5688;SDS011;2869;50.432;8.680;2023-04-05T03:42:37;10.17;;;6.50;;
5688;SDS011;2869;50.432;8.680;2023-04-05T03:45:06;9.57;;;6.70;;
5688;SDS011;2869;50.432;8.680;2023-04-05T03:47:33;7.17;;;6.00;;
5688;SDS011;2869;50.432;8.680;2023-04-05T03:50:00;6.80;;;5.50;;
5688;SDS011;2869;50.432;8.680;2023-04-05T03:52:27;7.90;;;5.33;;
5688;SDS011;2869;50.432;8.680;2023-04-05T03:54:54;11.33;;;6.10;;
5688;SDS011;2869;50.432;8.680;2023-04-05T03:57:21;10.70;;;6.13;;
5688;SDS011;2869;50.432;8.680;2023-04-05T03:59:47;10.90;;;6.07;;
5688;SDS011;2869;50.432;8.680;2023-04-05T04:02:16;12.80;;;6.20;;
5688;SDS011;2869;50.432;8.680;2023-04-05T04:04:42;12.53;;;6.27;;
5688;SDS011;2869;50.432;8.680;2023-04-05T04:07:09;6.97;;;6.20;;
5688;SDS011;2869;50.432;8.680;2023-04-05T04:09:36;11.10;;;6.10;;
5688;SDS011;2869;50.432;8.680;2023-04-05T04:12:02;6.50;;;5.80;;
5688;SDS011;2869;50.432;8.680;2023-04-05T04:14:29;10.23;;;6.70;;
5688;SDS011;2869;50.432;8.680;2023-04-05T04:16:56;9.50;;;6.87;;
5688;SDS011;2869;50.432;8.680;2023-04-05T04:19:24;7.90;;;6.40;;
5688;SDS011;2869;50.432;8.680;2023-04-05T04:21:51;10.50;;;6.20;;
5688;SDS011;2869;50.432;8.680;2023-04-05T04:24:20;9.27;;;7.20;;
5688;SDS011;2869;50.432;8.680;2023-04-05T04:26:47;8.67;;;5.97;;
5688;SDS011;2869;50.432;8.680;2023-04-05T04:29:14;12.83;;;6.20;;
5688;SDS011;2869;50.432;8.680;2023-04-05T04:31:41;11.00;;;6.10;;
5688;SDS011;2869;50.432;8.680;2023-04-05T04:34:09;8.13;;;5.80;;
5688;SDS011;2869;50.432;8.680;2023-04-05T04:36:39;11.63;;;5.90;;
5688;SDS011;2869;50.432;8.680;2023-04-05T04:39:06;6.70;;;6.00;;
5688;SDS011;2869;50.432;8.680;2023-04-05T04:41:34;10.00;;;5.97;;
5688;SDS011;2869;50.432;8.680;2023-04-05T04:44:02;8.17;;;6.50;;
5688;SDS011;2869;50.432;8.680;2023-04-05T04:46:30;11.50;;;6.70;;
5688;SDS011;2869;50.432;8.680;2023-04-05T04:49:06;9.20;;;6.70;;
5688;SDS011;2869;50.432;8.680;2023-04-05T04:51:33;17.23;;;7.37;;
5688;SDS011;2869;50.432;8.680;2023-04-05T04:54:04;11.53;;;7.10;;
5688;SDS011;2869;50.432;8.680;2023-04-05T04:56:31;11.90;;;8.47;;
5688;SDS011;2869;50.432;8.680;2023-04-05T04:58:58;15.37;;;8.73;;
5688;SDS011;2869;50.432;8.680;2023-04-05T05:01:24;23.77;;;10.10;;
5688;SDS011;2869;50.432;8.680;2023-04-05T05:03:51;25.57;;;10.70;;
5688;SDS011;2869;50.432;8.680;2023-04-05T05:06:18;22.67;;;11.20;;
5688;SDS011;2869;50.432;8.680;2023-04-05T05:08:46;29.43;;;11.77;;
5688;SDS011;2869;50.432;8.680;2023-04-05T05:11:14;27.50;;;11.80;;
5688;SDS011;2869;50.432;8.680;2023-04-05T05:13:40;21.90;;;11.57;;
5688;SDS011;2869;50.432;8.680;2023-04-05T05:16:07;21.33;;;11.67;;
5688;SDS011;2869;50.432;8.680;2023-04-05T05:18:34;19.33;;;11.30;;
5688;SDS011;2869;50.432;8.680;2023-04-05T05:21:01;31.00;;;11.23;;
5688;SDS011;2869;50.432;8.680;2023-04-05T05:23:27;24.03;;;11.30;;
5688;SDS011;2869;50.432;8.680;2023-04-05T05:25:56;19.03;;;9.60;;
5688;SDS011;2869;50.432;8.680;2023-04-05T05:28:25;20.40;;;9.30;;
5688;SDS011;2869;50.432;8.680;2023-04-05T05:30:51;17.00;;;9.03;;
5688;SDS011;2869;50.432;8.680;2023-04-05T05:33:18;16.70;;;8.93;;
5688;SDS011;2869;50.432;8.680;2023-04-05T05:35:48;12.33;;;8.17;;
5688;SDS011;2869;50.432;8.680;2023-04-05T05:38:15;15.60;;;8.20;;
5688;SDS011;2869;50.432;8.680;2023-04-05T05:40:42;13.83;;;7.63;;
5688;SDS011;2869;50.432;8.680;2023-04-05T05:43:09;14.93;;;7.80;;
5688;SDS011;2869;50.432;8.680;2023-04-05T05:45:37;10.53;;;7.30;;
5688;SDS011;2869;50.432;8.680;2023-04-05T05:48:04;15.23;;;7.90;;
5688;SDS011;2869;50.432;8.680;2023-04-05T05:50:30;12.70;;;7.50;;
5688;SDS011;2869;50.432;8.680;2023-04-05T05:52:57;11.00;;;7.00;;
5688;SDS011;2869;50.432;8.680;2023-04-05T05:55:24;9.40;;;6.80;;
5688;SDS011;2869;50.432;8.680;2023-04-05T05:57:51;14.30;;;7.10;;
5688;SDS011;2869;50.432;8.680;2023-04-05T06:00:18;15.63;;;6.47;;
5688;SDS011;2869;50.432;8.680;2023-04-05T06:02:46;9.80;;;6.90;;
5688;SDS011;2869;50.432;8.680;2023-04-05T06:05:14;11.40;;;6.87;;
5688;SDS011;2869;50.432;8.680;2023-04-05T06:07:41;9.70;;;6.63;;
5688;SDS011;2869;50.432;8.680;2023-04-05T06:10:08;11.30;;;6.20;;
5688;SDS011;2869;50.432;8.680;2023-04-05T06:12:36;12.00;;;7.53;;
5688;SDS011;2869;50.432;8.680;2023-04-05T06:15:03;8.40;;;6.70;;
5688;SDS011;2869;50.432;8.680;2023-04-05T06:17:30;11.60;;;6.80;;
5688;SDS011;2869;50.432;8.680;2023-04-05T06:19:59;15.50;;;7.03;;
5688;SDS011;2869;50.432;8.680;2023-04-05T06:22:26;11.00;;;6.07;;
5688;SDS011;2869;50.432;8.680;2023-04-05T06:24:52;14.03;;;7.07;;
5688;SDS011;2869;50.432;8.680;2023-04-05T06:27:19;10.30;;;6.23;;
5688;SDS011;2869;50.432;8.680;2023-04-05T06:29:46;10.63;;;6.63;;
5688;SDS011;2869;50.432;8.680;2023-04-05T06:32:13;10.77;;;6.80;;
5688;SDS011;2869;50.432;8.680;2023-04-05T06:34:40;9.27;;;6.57;;
5688;SDS011;2869;50.432;8.680;2023-04-05T06:37:08;10.47;;;6.70;;
5688;SDS011;2869;50.432;8.680;2023-04-05T06:39:34;7.67;;;6.33;;
5688;SDS011;2869;50.432;8.680;2023-04-05T06:42:01;8.80;;;5.97;;
5688;SDS011;2869;50.432;8.680;2023-04-05T06:44:28;8.90;;;6.90;;
5688;SDS011;2869;50.432;8.680;2023-04-05T06:46:55;11.37;;;6.83;;
5688;SDS011;2869;50.432;8.680;2023-04-05T06:49:21;10.70;;;6.27;;
5688;SDS011;2869;50.432;8.680;2023-04-05T06:51:48;10.30;;;6.30;;
5688;SDS011;2869;50.432;8.680;2023-04-05T06:54:16;12.37;;;6.60;;
5688;SDS011;2869;50.432;8.680;2023-04-05T06:56:45;10.57;;;6.93;;
5688;SDS011;2869;50.432;8.680;2023-04-05T06:59:11;13.67;;;6.87;;
5688;SDS011;2869;50.432;8.680;2023-04-05T07:01:38;9.80;;;6.93;;
5688;SDS011;2869;50.432;8.680;2023-04-05T07:04:05;9.80;;;6.70;;
5688;SDS011;2869;50.432;8.680;2023-04-05T07:06:31;11.83;;;6.80;;
5688;SDS011;2869;50.432;8.680;2023-04-05T07:09:02;8.80;;;6.20;;
5688;SDS011;2869;50.432;8.680;2023-04-05T07:11:30;12.77;;;6.40;;
5688;SDS011;2869;50.432;8.680;2023-04-05T07:13:57;10.60;;;6.70;;
5688;SDS011;2869;50.432;8.680;2023-04-05T07:16:24;12.50;;;6.80;;
5688;SDS011;2869;50.432;8.680;2023-04-05T07:18:51;8.70;;;6.60;;
5688;SDS011;2869;50.432;8.680;2023-04-05T07:21:18;11.47;;;6.57;;
5688;SDS011;2869;50.432;8.680;2023-04-05T07:23:45;11.20;;;6.73;;
5688;SDS011;2869;50.432;8.680;2023-04-05T07:26:11;11.03;;;6.23;;
5688;SDS011;2869;50.432;8.680;2023-04-05T07:28:39;13.60;;;6.40;;
5688;SDS011;2869;50.432;8.680;2023-04-05T07:31:06;9.80;;;6.60;;
5688;SDS011;2869;50.432;8.680;2023-04-05T07:33:33;9.73;;;6.70;;
5688;SDS011;2869;50.432;8.680;2023-04-05T07:36:00;10.87;;;7.10;;
5688;SDS011;2869;50.432;8.680;2023-04-05T07:38:27;11.40;;;6.53;;
5688;SDS011;2869;50.432;8.680;2023-04-05T07:40:54;8.53;;;6.63;;
5688;SDS011;2869;50.432;8.680;2023-04-05T07:43:21;7.97;;;7.00;;
5688;SDS011;2869;50.432;8.680;2023-04-05T07:45:50;6.43;;;5.77;;
5688;SDS011;2869;50.432;8.680;2023-04-05T07:48:18;5.83;;;5.40;;
5688;SDS011;2869;50.432;8.680;2023-04-05T07:50:44;9.50;;;5.40;;
5688;SDS011;2869;50.432;8.680;2023-04-05T07:53:11;7.47;;;6.10;;
5688;SDS011;2869;50.432;8.680;2023-04-05T07:55:38;11.17;;;5.93;;
5688;SDS011;2869;50.432;8.680;2023-04-05T07:58:05;5.73;;;5.20;;
5688;SDS011;2869;50.432;8.680;2023-04-05T08:00:32;7.30;;;5.80;;
5688;SDS011;2869;50.432;8.680;2023-04-05T08:03:00;5.70;;;5.13;;
5688;SDS011;2869;50.432;8.680;2023-04-05T08:05:26;7.80;;;4.90;;
5688;SDS011;2869;50.432;8.680;2023-04-05T08:07:53;5.53;;;4.67;;
5688;SDS011;2869;50.432;8.680;2023-04-05T08:10:22;6.63;;;5.00;;
5688;SDS011;2869;50.432;8.680;2023-04-05T08:12:48;9.47;;;5.20;;
5688;SDS011;2869;50.432;8.680;2023-04-05T08:15:15;5.80;;;4.80;;
5688;SDS011;2869;50.432;8.680;2023-04-05T08:17:42;5.90;;;4.47;;
5688;SDS011;2869;50.432;8.680;2023-04-05T08:20:10;6.03;;;4.40;;
5688;SDS011;2869;50.432;8.680;2023-04-05T08:22:37;7.50;;;5.03;;
5688;SDS011;2869;50.432;8.680;2023-04-05T08:25:04;7.53;;;5.50;;
5688;SDS011;2869;50.432;8.680;2023-04-05T08:27:32;7.33;;;4.90;;
5688;SDS011;2869;50.432;8.680;2023-04-05T08:29:58;5.53;;;4.97;;
5688;SDS011;2869;50.432;8.680;2023-04-05T08:32:25;7.07;;;4.80;;
5688;SDS011;2869;50.432;8.680;2023-04-05T08:34:52;10.13;;;4.70;;
5688;SDS011;2869;50.432;8.680;2023-04-05T08:37:20;6.57;;;4.43;;
5688;SDS011;2869;50.432;8.680;2023-04-05T08:39:46;6.73;;;4.90;;
5688;SDS011;2869;50.432;8.680;2023-04-05T08:42:15;4.93;;;4.43;;
5688;SDS011;2869;50.432;8.680;2023-04-05T08:44:44;5.80;;;4.37;;
5688;SDS011;2869;50.432;8.680;2023-04-05T08:47:12;7.20;;;5.30;;
5688;SDS011;2869;50.432;8.680;2023-04-05T08:49:44;6.10;;;4.77;;
5688;SDS011;2869;50.432;8.680;2023-04-05T08:52:11;5.70;;;4.70;;
5688;SDS011;2869;50.432;8.680;2023-04-05T08:54:39;5.27;;;4.77;;
5688;SDS011;2869;50.432;8.680;2023-04-05T08:57:06;5.63;;;4.10;;
5688;SDS011;2869;50.432;8.680;2023-04-05T08:59:35;5.60;;;4.47;;
5688;SDS011;2869;50.432;8.680;2023-04-05T09:02:05;6.40;;;4.60;;
5688;SDS011;2869;50.432;8.680;2023-04-05T09:04:40;6.60;;;4.63;;
5688;SDS011;2869;50.432;8.680;2023-04-05T09:07:09;5.43;;;4.27;;
5688;SDS011;2869;50.432;8.680;2023-04-05T09:09:41;6.07;;;4.50;;
5688;SDS011;2869;50.432;8.680;2023-04-05T09:12:10;6.00;;;4.87;;
5688;SDS011;2869;50.432;8.680;2023-04-05T09:14:37;7.50;;;4.83;;
5688;SDS011;2869;50.432;8.680;2023-04-05T09:17:04;6.30;;;5.17;;
5688;SDS011;2869;50.432;8.680;2023-04-05T09:19:31;5.53;;;5.03;;
5688;SDS011;2869;50.432;8.680;2023-04-05T09:21:58;5.50;;;4.50;;
5688;SDS011;2869;50.432;8.680;2023-04-05T09:24:30;5.43;;;4.90;;
5688;SDS011;2869;50.432;8.680;2023-04-05T09:27:03;6.07;;;5.30;;
5688;SDS011;2869;50.432;8.680;2023-04-05T09:29:31;14.20;;;5.13;;
5688;SDS011;2869;50.432;8.680;2023-04-05T09:31:59;8.07;;;4.77;;
5688;SDS011;2869;50.432;8.680;2023-04-05T09:34:26;5.70;;;4.83;;
5688;SDS011;2869;50.432;8.680;2023-04-05T09:36:54;7.30;;;5.17;;
5688;SDS011;2869;50.432;8.680;2023-04-05T09:39:22;6.00;;;5.40;;
5688;SDS011;2869;50.432;8.680;2023-04-05T09:42:04;7.03;;;5.00;;
5688;SDS011;2869;50.432;8.680;2023-04-05T09:44:47;5.70;;;5.20;;
5688;SDS011;2869;50.432;8.680;2023-04-05T09:47:18;5.93;;;5.33;;
5688;SDS011;2869;50.432;8.680;2023-04-05T09:49:45;5.80;;;5.20;;
5688;SDS011;2869;50.432;8.680;2023-04-05T09:52:22;6.77;;;5.50;;
5688;SDS011;2869;50.432;8.680;2023-04-05T09:54:50;7.20;;;5.37;;
5688;SDS011;2869;50.432;8.680;2023-04-05T09:57:20;9.43;;;6.00;;
5688;SDS011;2869;50.432;8.680;2023-04-05T09:59:47;7.50;;;4.90;;
5688;SDS011;2869;50.432;8.680;2023-04-05T10:02:14;5.60;;;5.03;;
5688;SDS011;2869;50.432;8.680;2023-04-05T10:04:41;9.13;;;5.80;;
5688;SDS011;2869;50.432;8.680;2023-04-05T10:07:10;7.73;;;4.63;;
5688;SDS011;2869;50.432;8.680;2023-04-05T10:09:38;6.70;;;5.00;;
5688;SDS011;2869;50.432;8.680;2023-04-05T10:12:05;7.00;;;5.53;;
5688;SDS011;2869;50.432;8.680;2023-04-05T10:14:34;5.73;;;5.20;;
5688;SDS011;2869;50.432;8.680;2023-04-05T10:17:04;6.47;;;4.77;;
5688;SDS011;2869;50.432;8.680;2023-04-05T10:19:36;5.97;;;5.37;;
5688;SDS011;2869;50.432;8.680;2023-04-05T10:22:14;7.60;;;5.43;;
5688;SDS011;2869;50.432;8.680;2023-04-05T10:24:51;7.40;;;5.33;;
5688;SDS011;2869;50.432;8.680;2023-04-05T10:27:26;7.07;;;4.87;;
5688;SDS011;2869;50.432;8.680;2023-04-05T10:30:02;5.70;;;5.07;;
5688;SDS011;2869;50.432;8.680;2023-04-05T10:32:37;8.80;;;5.67;;
5688;SDS011;2869;50.432;8.680;2023-04-05T10:35:10;6.10;;;5.20;;
5688;SDS011;2869;50.432;8.680;2023-04-05T10:37:45;7.60;;;5.33;;
5688;SDS011;2869;50.432;8.680;2023-04-05T10:40:24;5.67;;;5.07;;
5688;SDS011;2869;50.432;8.680;2023-04-05T10:42:57;5.90;;;5.03;;
5688;SDS011;2869;50.432;8.680;2023-04-05T10:45:25;7.77;;;5.20;;
5688;SDS011;2869;50.432;8.680;2023-04-05T10:47:53;7.13;;;5.17;;
5688;SDS011;2869;50.432;8.680;2023-04-05T10:50:26;10.13;;;5.67;;
5688;SDS011;2869;50.432;8.680;2023-04-05T10:52:53;6.10;;;5.50;;
5688;SDS011;2869;50.432;8.680;2023-04-05T10:55:23;7.10;;;5.70;;
5688;SDS011;2869;50.432;8.680;2023-04-05T10:57:50;6.90;;;5.03;;
5688;SDS011;2869;50.432;8.680;2023-04-05T11:00:19;7.80;;;5.97;;
5688;SDS011;2869;50.432;8.680;2023-04-05T11:02:50;7.43;;;5.90;;
5688;SDS011;2869;50.432;8.680;2023-04-05T11:05:29;8.17;;;5.77;;
5688;SDS011;2869;50.432;8.680;2023-04-05T11:08:02;9.83;;;4.77;;
5688;SDS011;2869;50.432;8.680;2023-04-05T11:10:30;7.27;;;5.50;;
5688;SDS011;2869;50.432;8.680;2023-04-05T11:13:06;5.67;;;5.10;;
5688;SDS011;2869;50.432;8.680;2023-04-05T11:15:34;5.47;;;4.90;;
5688;SDS011;2869;50.432;8.680;2023-04-05T11:18:04;7.80;;;5.23;;
5688;SDS011;2869;50.432;8.680;2023-04-05T11:20:41;8.80;;;6.03;;
5688;SDS011;2869;50.432;8.680;2023-04-05T11:23:09;6.20;;;5.60;;
5688;SDS011;2869;50.432;8.680;2023-04-05T11:25:37;5.43;;;4.90;;
5688;SDS011;2869;50.432;8.680;2023-04-05T11:28:05;5.63;;;5.00;;
5688;SDS011;2869;50.432;8.680;2023-04-05T11:30:45;5.50;;;5.00;;
5688;SDS011;2869;50.432;8.680;2023-04-05T11:36:34;7.37;;;5.30;;
5688;SDS011;2869;50.432;8.680;2023-04-05T11:41:53;6.13;;;4.90;;
5688;SDS011;2869;50.432;8.680;2023-04-05T11:44:22;5.03;;;4.63;;
5688;SDS011;2869;50.432;8.680;2023-04-05T11:46:49;5.03;;;4.20;;
5688;SDS011;2869;50.432;8.680;2023-04-05T11:49:19;5.50;;;5.00;;
5688;SDS011;2869;50.432;8.680;2023-04-05T11:51:47;5.57;;;4.73;;
5688;SDS011;2869;50.432;8.680;2023-04-05T11:54:26;5.00;;;4.60;;
5688;SDS011;2869;50.432;8.680;2023-04-05T11:56:54;6.67;;;4.60;;
5688;SDS011;2869;50.432;8.680;2023-04-05T11:59:26;5.20;;;4.70;;
5688;SDS011;2869;50.432;8.680;2023-04-05T12:01:56;6.43;;;4.50;;
5688;SDS011;2869;50.432;8.680;2023-04-05T12:04:25;5.70;;;4.63;;
5688;SDS011;2869;50.432;8.680;2023-04-05T12:07:06;5.88;;;4.60;;
5688;SDS011;2869;50.432;8.680;2023-04-05T12:09:34;5.30;;;4.60;;
5688;SDS011;2869;50.432;8.680;2023-04-05T12:12:01;6.97;;;5.03;;
5688;SDS011;2869;50.432;8.680;2023-04-05T12:14:27;6.77;;;6.07;;
5688;SDS011;2869;50.432;8.680;2023-04-05T12:16:54;6.53;;;5.70;;
5688;SDS011;2869;50.432;8.680;2023-04-05T12:19:21;6.87;;;5.00;;
5688;SDS011;2869;50.432;8.680;2023-04-05T12:21:49;4.85;;;4.38;;
5688;SDS011;2869;50.432;8.680;2023-04-05T12:24:16;5.70;;;5.20;;
5688;SDS011;2869;50.432;8.680;2023-04-05T12:26:43;6.83;;;4.87;;
5688;SDS011;2869;50.432;8.680;2023-04-05T12:29:09;6.47;;;4.90;;
5688;SDS011;2869;50.432;8.680;2023-04-05T12:31:37;5.47;;;4.20;;
5688;SDS011;2869;50.432;8.680;2023-04-05T12:34:04;6.57;;;4.40;;
5688;SDS011;2869;50.432;8.680;2023-04-05T12:36:31;7.25;;;4.60;;
5688;SDS011;2869;50.432;8.680;2023-04-05T12:38:59;8.83;;;4.97;;
5688;SDS011;2869;50.432;8.680;2023-04-05T12:41:31;5.67;;;4.67;;
5688;SDS011;2869;50.432;8.680;2023-04-05T12:43:58;5.50;;;5.00;;
5688;SDS011;2869;50.432;8.680;2023-04-05T12:46:39;6.80;;;5.00;;
5688;SDS011;2869;50.432;8.680;2023-04-05T12:49:08;4.83;;;4.33;;
5688;SDS011;2869;50.432;8.680;2023-04-05T12:51:36;5.77;;;5.17;;
5688;SDS011;2869;50.432;8.680;2023-04-05T12:54:09;5.97;;;5.47;;
5688;SDS011;2869;50.432;8.680;2023-04-05T12:56:37;6.80;;;5.27;;
5688;SDS011;2869;50.432;8.680;2023-04-05T12:59:04;6.77;;;4.63;;
5688;SDS011;2869;50.432;8.680;2023-04-05T13:01:31;5.00;;;4.60;;
5688;SDS011;2869;50.432;8.680;2023-04-05T13:03:58;6.87;;;4.83;;
5688;SDS011;2869;50.432;8.680;2023-04-05T13:06:25;6.90;;;4.93;;
5688;SDS011;2869;50.432;8.680;2023-04-05T13:08:52;5.20;;;4.70;;
5688;SDS011;2869;50.432;8.680;2023-04-05T13:11:20;5.43;;;4.57;;
5688;SDS011;2869;50.432;8.680;2023-04-05T13:13:47;5.57;;;4.80;;
5688;SDS011;2869;50.432;8.680;2023-04-05T13:16:14;7.40;;;4.87;;
5688;SDS011;2869;50.432;8.680;2023-04-05T13:18:41;5.33;;;4.83;;
5688;SDS011;2869;50.432;8.680;2023-04-05T13:21:08;7.00;;;5.07;;
5688;SDS011;2869;50.432;8.680;2023-04-05T13:23:36;6.43;;;5.07;;
5688;SDS011;2869;50.432;8.680;2023-04-05T13:26:03;5.57;;;5.07;;
5688;SDS011;2869;50.432;8.680;2023-04-05T13:28:32;5.50;;;4.90;;
5688;SDS011;2869;50.432;8.680;2023-04-05T13:30:59;6.30;;;4.80;;
5688;SDS011;2869;50.432;8.680;2023-04-05T13:33:27;5.50;;;5.00;;
5688;SDS011;2869;50.432;8.680;2023-04-05T13:35:54;5.27;;;4.07;;
5688;SDS011;2869;50.432;8.680;2023-04-05T13:38:20;5.53;;;4.27;;
5688;SDS011;2869;50.432;8.680;2023-04-05T13:40:47;5.60;;;4.30;;
5688;SDS011;2869;50.432;8.680;2023-04-05T13:43:14;4.53;;;4.17;;
5688;SDS011;2869;50.432;8.680;2023-04-05T13:45:42;7.53;;;4.90;;
5688;SDS011;2869;50.432;8.680;2023-04-05T13:48:09;6.63;;;5.00;;
5688;SDS011;2869;50.432;8.680;2023-04-05T13:50:35;9.60;;;4.40;;
5688;SDS011;2869;50.432;8.680;2023-04-05T13:53:02;4.73;;;4.33;;
5688;SDS011;2869;50.432;8.680;2023-04-05T13:55:29;5.07;;;4.67;;
5688;SDS011;2869;50.432;8.680;2023-04-05T13:57:55;8.93;;;4.73;;
5688;SDS011;2869;50.432;8.680;2023-04-05T14:03:45;7.33;;;5.60;;
5688;SDS011;2869;50.432;8.680;2023-04-05T14:06:12;12.33;;;5.50;;
5688;SDS011;2869;50.432;8.680;2023-04-05T14:08:39;9.27;;;6.37;;
5688;SDS011;2869;50.432;8.680;2023-04-05T14:11:05;6.20;;;5.00;;
5688;SDS011;2869;50.432;8.680;2023-04-05T14:13:32;5.80;;;4.90;;
5688;SDS011;2869;50.432;8.680;2023-04-05T14:15:59;5.20;;;4.70;;
5688;SDS011;2869;50.432;8.680;2023-04-05T14:18:26;6.20;;;4.50;;
5688;SDS011;2869;50.432;8.680;2023-04-05T14:20:54;4.70;;;4.30;;
5688;SDS011;2869;50.432;8.680;2023-04-05T14:23:21;5.17;;;4.73;;
5688;SDS011;2869;50.432;8.680;2023-04-05T14:25:50;6.90;;;5.33;;
5688;SDS011;2869;50.432;8.680;2023-04-05T14:28:17;6.60;;;5.40;;
5688;SDS011;2869;50.432;8.680;2023-04-05T14:30:44;4.67;;;4.27;;
5688;SDS011;2869;50.432;8.680;2023-04-05T14:33:10;5.03;;;4.63;;
5688;SDS011;2869;50.432;8.680;2023-04-05T14:35:38;7.23;;;5.10;;
5688;SDS011;2869;50.432;8.680;2023-04-05T14:38:06;5.50;;;5.00;;
5688;SDS011;2869;50.432;8.680;2023-04-05T14:40:33;5.90;;;5.00;;
5688;SDS011;2869;50.432;8.680;2023-04-05T14:43:00;5.93;;;4.93;;
5688;SDS011;2869;50.432;8.680;2023-04-05T14:45:27;5.70;;;5.00;;
5688;SDS011;2869;50.432;8.680;2023-04-05T14:47:54;5.90;;;5.30;;
5688;SDS011;2869;50.432;8.680;2023-04-05T14:50:20;5.50;;;5.00;;
5688;SDS011;2869;50.432;8.680;2023-04-05T14:52:47;6.33;;;5.27;;
5688;SDS011;2869;50.432;8.680;2023-04-05T14:55:15;5.83;;;4.73;;
5688;SDS011;2869;50.432;8.680;2023-04-05T14:57:42;4.07;;;3.70;;
5688;SDS011;2869;50.432;8.680;2023-04-05T15:00:09;7.47;;;4.87;;
5688;SDS011;2869;50.432;8.680;2023-04-05T15:02:36;4.50;;;4.20;;
5688;SDS011;2869;50.432;8.680;2023-04-05T15:05:03;8.50;;;4.43;;
5688;SDS011;2869;50.432;8.680;2023-04-05T15:07:30;4.53;;;4.20;;
5688;SDS011;2869;50.432;8.680;2023-04-05T15:09:57;5.10;;;4.60;;
5688;SDS011;2869;50.432;8.680;2023-04-05T15:12:25;6.00;;;5.10;;
5688;SDS011;2869;50.432;8.680;2023-04-05T15:14:52;6.23;;;5.13;;
5688;SDS011;2869;50.432;8.680;2023-04-05T15:17:18;6.50;;;4.90;;
5688;SDS011;2869;50.432;8.680;2023-04-05T15:19:45;5.70;;;5.07;;
5688;SDS011;2869;50.432;8.680;2023-04-05T15:22:12;5.87;;;4.60;;
5688;SDS011;2869;50.432;8.680;2023-04-05T15:24:39;8.60;;;4.43;;
5688;SDS011;2869;50.432;8.680;2023-04-05T15:27:06;5.87;;;4.37;;
5688;SDS011;2869;50.432;8.680;2023-04-05T15:29:34;4.83;;;4.23;;
5688;SDS011;2869;50.432;8.680;2023-04-05T15:32:01;5.03;;;4.20;;